Jakobshavn, Greenland
Current Conditions -  °F | °C
As of 1:50 PM on Thursday 30 Oct 2014 (Local Time) from BGJN Reporting Station
Broken Clouds Broken Clouds  
Wind Chill: 13°   Ceiling: 18000
Heat Index: 25°   Visibility: 6mi
Dew Point:   Wind: 13mph
Humidity: 36%   Direction: 60°ENE
Pressure: 30.06"   Gusts: NA
Location:  69.21°N, 51.09°W
Report Text: BGJN 301550Z 06011KT 9999 FEW085 BKN180 M04/M17 Q1018
Loading
Personal Weather Stations






























Interactive Weather Map
Tropical Storm Tracking
New forecast layout! Learn more

10-Day Weather Forecast

Advertisements
Track Severe Weather on mobile